| time (UTC) | temp C | wind direction | speed KPH | gust KPH | rain 1hr cm | rain 24hr cm | rain mn cm | humidity % | barometer mb |
| 20260904170515 | 15 | 234 | 8.0 | 14.5 | 0.00 | 0.79 | 0.79 | 92 | 998.5 |
| 20260904165516 | 15 | 240 | 9.7 | 16.1 | 0.00 | 0.79 | 0.79 | 92 | 998.3 |
| 20260904163516 | 16 | 295 | 11.3 | 20.9 | 0.00 | 0.79 | 0.79 | 92 | 998.4 |
| 20260904161515 | 16 | 311 | 11.3 | 16.1 | 0.00 | 0.79 | 0.79 | 92 | 998.7 |
| 20260904160515 | 16 | 322 | 11.3 | 19.3 | 0.00 | 0.79 | 0.79 | 92 | 998.4 |
| 20260904154516 | 16 | 240 | 9.7 | 20.9 | 0.00 | 0.79 | 0.79 | 93 | 998.6 |
| 20260904153516 | 16 | 249 | 11.3 | 20.9 | 0.00 | 0.79 | 0.79 | 93 | 998.6 |
| 20260904145515 | 16 | 260 | 14.5 | 25.7 | 0.00 | 0.79 | 0.79 | 94 | 998.7 |
| 20260904144516 | 16 | 326 | 11.3 | 22.5 | 0.00 | 0.79 | 0.79 | 94 | 998.7 |
| 20260904143515 | 16 | 252 | 11.3 | 20.9 | 0.00 | 0.79 | 0.79 | 95 | 998.8 |
| 20260904141516 | 16 | 238 | 9.7 | 16.1 | 0.05 | 0.81 | 0.79 | 95 | 998.7 |
| 20260904133515 | 14 | 315 | 9.7 | 16.1 | 0.33 | 0.81 | 0.79 | 95 | 999.1 |
| 20260904132516 | 14 | 321 | 11.3 | 19.3 | 0.36 | 0.79 | 0.76 | 95 | 999.1 |
| 20260904131516 | 14 | 0 | 14.5 | 24.1 | 0.33 | 0.76 | 0.71 | 95 | 999.2 |
| 20260904124515 | 15 | 293 | 8.0 | 14.5 | 0.23 | 0.53 | 0.51 | 95 | 999.3 |
| 20260904123516 | 15 | 321 | 11.3 | 16.1 | 0.23 | 0.51 | 0.46 | 94 | 999.3 |
| 20260904121515 | 15 | 241 | 8.0 | 16.1 | 0.20 | 0.43 | 0.38 | 94 | 999.8 |
| 20260904115515 | 15 | 295 | 14.5 | 24.1 | 0.15 | 0.33 | 0.30 | 94 | 1000.0 |
| 20260904114516 | 16 | 220 | 11.3 | 22.5 | 0.13 | 0.30 | 0.25 | 94 | 1000.1 |
| 20260904113515 | 16 | 241 | 11.3 | 25.7 | 0.10 | 0.25 | 0.23 | 94 | 1000.2 |
| 20260904112515 | 16 | 224 | 9.7 | 20.9 | 0.08 | 0.23 | 0.20 | 94 | 1000.1 |
| 20260904110516 | 16 | 216 | 11.3 | 24.1 | 0.05 | 0.23 | 0.15 | 94 | 1000.1 |
| 20260904105515 | 16 | 221 | 14.5 | 22.5 | 0.05 | 0.20 | 0.15 | 94 | 1000.3 |
| 20260904104516 | 16 | 235 | 14.5 | 24.1 | 0.05 | 0.20 | 0.15 | 94 | 1000.3 |
| 20260904103525 | 16 | 204 | 16.1 | 25.7 | 0.05 | 0.18 | 0.13 | 94 | 1000.5 |
| 20260904101526 | 16 | 290 | 14.5 | 25.7 | 0.05 | 0.15 | 0.10 | 93 | 1000.8 |
| 20260904094526 | 16 | 223 | 16.1 | 25.7 | 0.05 | 0.15 | 0.08 | 93 | 1001.2 |
| 20260904084526 | 16 | 206 | 19.3 | 25.7 | 0.00 | 0.20 | 0.03 | 91 | 1002.3 |
| 20260904082514 | 16 | 198 | 19.3 | 25.7 | 0.00 | 0.23 | 0.03 | 90 | 1002.5 |
| 20260904081514 | 16 | 288 | 12.9 | 25.7 | 0.00 | 0.23 | 0.03 | 90 | 1002.6 |
| 20260904080515 | 16 | 298 | 14.5 | 24.1 | 0.00 | 0.23 | 0.03 | 90 | 1002.7 |
| 20260904071515 | 15 | 231 | 4.8 | 9.7 | 0.03 | 0.33 | 0.03 | 92 | 1003.1 |
| 20260904070514 | 15 | 224 | 4.8 | 11.3 | 0.03 | 0.33 | 0.03 | 92 | 1003.3 |
| 20260904064515 | 15 | 238 | 4.8 | 14.5 | 0.03 | 0.33 | 0.03 | 92 | 1003.6 |
| 20260904063515 | 15 | 240 | 8.0 | 12.9 | 0.03 | 0.33 | 0.03 | 91 | 1003.7 |
| 20260904061514 | 15 | 316 | 9.7 | 19.3 | 0.00 | 0.30 | 0.00 | 91 | 1004.0 |
| 20260904060515 | 15 | 295 | 14.5 | 20.9 | 0.00 | 0.30 | 0.00 | 90 | 1004.0 |
| 20260904051514 | 15 | 241 | 12.9 | 20.9 | 0.00 | 0.30 | 0.00 | 87 | 1004.5 |
| 20260904044515 | 15 | 264 | 11.3 | 20.9 | 0.00 | 0.46 | 0.00 | 86 | 1004.7 |
| 20260904042514 | 15 | 249 | 12.9 | 24.1 | 0.00 | 0.53 | 0.00 | 86 | 1004.7 |
| 20260904041516 | 15 | 257 | 9.7 | 25.7 | 0.00 | 0.66 | 0.00 | 86 | 1004.6 |
| 20260904040515 | 15 | 238 | 12.9 | 25.7 | 0.00 | 0.79 | 0.00 | 86 | 1004.4 |
| 20260904035515 | 15 | 253 | 16.1 | 24.1 | 0.00 | 0.86 | 0.00 | 86 | 1004.8 |
| 20260904034515 | 15 | 252 | 14.5 | 29.0 | 0.00 | 0.89 | 0.00 | 86 | 1004.9 |
| 20260904031514 | 15 | 244 | 17.7 | 25.7 | 0.00 | 0.97 | 0.00 | 86 | 1005.3 |
| 20260904030515 | 15 | 259 | 19.3 | 29.0 | 0.00 | 0.97 | 0.00 | 87 | 1005.3 |
| 20260904023514 | 16 | 242 | 17.7 | 33.8 | 0.00 | 0.97 | 0.00 | 87 | 1005.4 |
| 20260904020514 | 16 | 282 | 17.7 | 27.4 | 0.00 | 0.97 | 0.00 | 87 | 1005.7 |
| 20260904013514 | 16 | 248 | 20.9 | 32.2 | 0.00 | 0.97 | 0.00 | 89 | 1005.8 |
| 20260904012514 | 16 | 256 | 14.5 | 29.0 | 0.00 | 0.97 | 0.00 | 89 | 1005.8 |
| 20260904011515 | 16 | 262 | 22.5 | 32.2 | 0.00 | 0.97 | 0.00 | 89 | 1005.8 |
| 20260904010514 | 15 | 257 | 14.5 | 27.4 | 0.00 | 0.97 | 0.00 | 90 | 1005.8 |
| 20260904002515 | 16 | 242 | 19.3 | 27.4 | 0.00 | 0.97 | 0.00 | 90 | 1006.2 |
| 20260904001516 | 16 | 253 | 14.5 | 25.7 | 0.00 | 0.97 | 0.00 | 90 | 1006.3 |
| 20260904000515 | 16 | 248 | 11.3 | 27.4 | 0.00 | 0.97 | 0.00 | 90 | 1006.1 |
| 20260903235514 | 16 | 228 | 16.1 | 27.4 | 0.00 | 0.97 | 0.00 | 89 | 1005.9 |
| 20260903233515 | 16 | 252 | 17.7 | 25.7 | 0.00 | 0.97 | 0.00 | 90 | 1006.3 |
| 20260903225515 | 16 | 249 | 19.3 | 32.2 | 0.00 | 0.97 | 0.00 | 90 | 1006.3 |
| 20260903224516 | 16 | 258 | 17.7 | 25.7 | 0.00 | 0.97 | 0.00 | 90 | 1006.5 |
| 20260903222515 | 16 | 240 | 16.1 | 25.7 | 0.03 | 0.97 | 0.00 | 90 | 1006.5 |
| 20260903221510 | 16 | 267 | 16.1 | 32.2 | 0.03 | 0.97 | 0.00 | 91 | 1006.4 |
| 20260903220515 | 16 | 264 | 17.7 | 32.2 | 0.03 | 0.97 | 0.00 | 90 | 1006.4 |
| 20260903215515 | 16 | 260 | 20.9 | 29.0 | 0.03 | 0.97 | 0.97 | 90 | 1006.4 |
| 20260903213514 | 16 | 252 | 14.5 | 32.2 | 0.03 | 0.97 | 0.97 | 89 | 1006.5 |
| 20260903211515 | 16 | 267 | 19.3 | 32.2 | 0.00 | 0.94 | 0.94 | 88 | 1006.4 |
| 20260903210514 | 16 | 262 | 22.5 | 33.8 | 0.00 | 0.94 | 0.94 | 88 | 1006.4 |
| 20260903205515 | 16 | 272 | 20.9 | 29.0 | 0.00 | 0.94 | 0.94 | 89 | 1006.3 |
| 20260903203514 | 16 | 267 | 20.9 | 27.4 | 0.00 | 0.94 | 0.94 | 89 | 1006.4 |
| 20260903200514 | 16 | 248 | 19.3 | 35.4 | 0.00 | 0.94 | 0.94 | 90 | 1006.3 |
| 20260903195514 | 17 | 277 | 20.9 | 29.0 | 0.00 | 0.94 | 0.94 | 90 | 1006.3 |
| 20260903194514 | 17 | 257 | 32.2 | 41.8 | 0.00 | 0.94 | 0.94 | 89 | 1006.3 |
| 20260903191515 | 17 | 256 | 20.9 | 33.8 | 0.00 | 0.94 | 0.94 | 89 | 1006.0 |
| 20260903190514 | 17 | 261 | 25.7 | 33.8 | 0.00 | 0.94 | 0.94 | 89 | 1006.0 |
| 20260903185514 | 17 | 258 | 19.3 | 38.6 | 0.00 | 0.94 | 0.94 | 89 | 1005.8 |
| 20260903183515 | 17 | 261 | 22.5 | 40.2 | 0.00 | 0.94 | 0.94 | 89 | 1005.9 |
| 20260903174515 | 18 | 326 | 17.7 | 29.0 | 0.00 | 0.94 | 0.94 | 91 | 1005.3 |
| 20260903173514 | 18 | 244 | 14.5 | 27.4 | 0.00 | 0.94 | 0.94 | 91 | 1005.3 |
| 20260903171515 | 18 | 255 | 12.9 | 25.7 | 0.00 | 0.94 | 0.94 | 89 | 1005.2 |